createdAt,value
2023-05-10T00:00:17.752Z,95325.84
2023-05-10T00:03:23.886Z,95336.44
2023-05-10T00:06:27.160Z,95331.69
2023-05-10T00:09:30.167Z,95329.81
2023-05-10T00:12:33.235Z,95327.13
2023-05-10T00:15:36.668Z,95306.34
2023-05-10T00:18:41.233Z,95330.09
2023-05-10T00:21:44.286Z,95322.91
2023-05-10T00:24:47.336Z,95318.47
2023-05-10T00:27:50.601Z,95323.19
2023-05-10T00:30:53.679Z,95313.63
2023-05-10T00:33:58.352Z,95318.97
2023-05-10T00:37:01.405Z,95322.69
2023-05-10T00:40:04.521Z,95311.66
2023-05-10T00:43:07.572Z,95312.66
2023-05-10T00:46:10.679Z,95307.91
2023-05-10T00:49:15.290Z,95308.13
2023-05-10T00:52:18.432Z,95307.31
2023-05-10T00:55:22.613Z,95306.53
2023-05-10T00:58:29.209Z,95306.34
2023-05-10T01:01:33.334Z,95306.63
2023-05-10T01:04:38.294Z,95307.44
2023-05-10T01:07:42.195Z,95303.19
2023-05-10T01:10:46.657Z,95302.09
2023-05-10T01:13:54.905Z,95298.91
2023-05-10T01:16:58.433Z,95304.53
2023-05-10T01:20:02.997Z,95295.19
2023-05-10T01:23:33.137Z,95276.25
2023-05-10T01:27:00.540Z,95296.84
2023-05-10T01:30:41.519Z,95290.75
2023-05-10T01:33:51.743Z,95294.19
2023-05-10T01:37:00.787Z,95287.00
2023-05-10T01:40:12.552Z,95287.59
2023-05-10T01:46:29.576Z,95284.13
2023-05-10T01:49:42.036Z,95280.69
2023-05-10T01:52:47.018Z,95280.19
2023-05-10T01:55:53.466Z,95277.53
2023-05-10T01:58:59.018Z,95278.31
2023-05-10T02:02:04.251Z,95283.63
2023-05-10T02:05:10.398Z,95277.09
2023-05-10T02:08:14.513Z,95286.59
2023-05-10T02:11:19.754Z,95284.44
2023-05-10T02:14:25.515Z,95288.19
2023-05-10T02:17:29.825Z,95292.22
2023-05-10T02:20:35.546Z,95287.44
2023-05-10T02:23:40.365Z,95284.00
2023-05-10T02:26:45.692Z,95289.03
2023-05-10T02:29:49.496Z,95297.00
2023-05-10T02:32:53.782Z,95293.34
2023-05-10T02:35:58.908Z,95300.75
2023-05-10T02:39:04.140Z,95291.47
2023-05-10T02:42:07.837Z,95305.28
2023-05-10T02:45:15.554Z,95294.88
2023-05-10T02:48:19.099Z,95293.84
2023-05-10T02:51:27.361Z,95261.47
2023-05-10T02:54:35.454Z,95290.13
2023-05-10T02:57:43.068Z,95292.78
2023-05-10T03:00:46.352Z,95284.31
2023-05-10T03:03:49.439Z,95285.09
2023-05-10T03:06:54.231Z,95293.84
2023-05-10T03:09:57.400Z,95282.44
2023-05-10T03:13:13.702Z,95288.25
2023-05-10T03:16:19.221Z,95291.97
2023-05-10T03:19:28.664Z,95293.00
2023-05-10T03:22:36.581Z,95290.53
2023-05-10T03:25:42.010Z,95303.25
2023-05-10T03:28:45.967Z,95294.47
2023-05-10T03:31:49.241Z,95300.59
2023-05-10T03:34:52.598Z,95301.19
2023-05-10T03:37:57.071Z,95295.88
2023-05-10T03:41:00.094Z,95301.19
2023-05-10T03:44:03.383Z,95295.06
2023-05-10T03:47:06.581Z,95275.88
2023-05-10T03:50:11.337Z,95296.44
2023-05-10T03:53:15.819Z,95305.53
2023-05-10T03:56:18.941Z,95297.81
2023-05-10T03:59:21.972Z,95315.06
2023-05-10T04:02:25.277Z,95304.13
2023-05-10T04:05:28.486Z,95311.91
2023-05-10T04:08:33.426Z,95301.50
2023-05-10T04:11:36.468Z,95317.06
2023-05-10T04:14:39.566Z,95315.28
2023-05-10T04:17:42.651Z,95315.28
2023-05-10T04:20:45.793Z,95322.28
2023-05-10T04:23:50.300Z,95322.28
2023-05-10T04:26:53.861Z,95292.78
2023-05-10T04:29:57.752Z,95318.06
2023-05-10T04:33:00.972Z,95322.88
2023-05-10T04:36:04.444Z,95324.22
2023-05-10T04:39:09.519Z,95314.66
2023-05-10T04:42:12.856Z,95323.44
2023-05-10T04:45:16.726Z,95316.31
2023-05-10T04:48:19.747Z,95325.59
2023-05-10T04:51:22.839Z,95316.31
2023-05-10T04:54:27.492Z,95313.97
2023-05-10T04:57:30.490Z,95309.72
2023-05-10T05:00:33.603Z,95320.84
2023-05-10T05:03:36.776Z,95323.50
2023-05-10T05:06:39.843Z,95316.41
2023-05-10T05:09:44.282Z,95319.06
2023-05-10T05:12:47.382Z,95320.16
2023-05-10T05:15:50.431Z,95324.41
2023-05-10T05:18:53.503Z,95320.16
2023-05-10T05:21:56.473Z,95326.06
2023-05-10T05:25:01.639Z,95305.72
2023-05-10T05:28:04.672Z,95325.28
2023-05-10T05:31:08.775Z,95330.59
2023-05-10T05:34:11.993Z,95332.16
2023-05-10T05:37:16.334Z,95339.63
2023-05-10T05:40:21.482Z,95344.94
2023-05-10T05:43:24.856Z,95337.53
2023-05-10T05:46:27.898Z,95345.22
2023-05-10T05:49:31.056Z,95336.47
2023-05-10T05:52:34.129Z,95342.94
2023-05-10T05:55:38.650Z,95339.50
2023-05-10T05:58:41.909Z,95348.47
2023-05-10T06:01:44.924Z,95348.19
2023-05-10T06:04:47.995Z,95355.94
2023-05-10T06:07:51.075Z,95357.22
2023-05-10T06:10:55.496Z,95354.06
2023-05-10T06:13:58.504Z,95353.00
2023-05-10T06:17:02.082Z,95352.22
2023-05-10T06:20:06.336Z,95347.75
2023-05-10T06:23:09.415Z,95353.56
2023-05-10T06:26:14.895Z,95360.47
2023-05-10T06:29:17.974Z,95365.28
2023-05-10T06:32:21.053Z,95360.47
2023-05-10T06:35:24.272Z,95366.56
2023-05-10T06:38:27.445Z,95366.06
2023-05-10T06:41:31.919Z,95369.53
2023-05-10T06:44:34.974Z,95366.38
2023-05-10T06:47:39.201Z,95365.56
2023-05-10T06:50:42.644Z,95357.91
2023-05-10T06:53:45.681Z,95364.50
2023-05-10T06:56:50.284Z,95365.56
2023-05-10T06:59:54.120Z,95349.56
2023-05-10T07:02:57.229Z,95366.38
2023-05-10T07:06:05.436Z,95370.69
2023-05-10T07:09:08.741Z,95367.50
2023-05-10T07:12:15.302Z,95370.16
2023-05-10T07:15:19.467Z,95360.88
2023-05-10T07:18:22.702Z,95374.44
2023-05-10T07:21:26.329Z,95371.22
2023-05-10T07:24:29.366Z,95376.84
2023-05-10T07:27:33.833Z,95371.09
2023-05-10T07:30:37.219Z,95375.78
2023-05-10T07:33:40.987Z,95346.19
2023-05-10T07:36:44.011Z,95367.94
2023-05-10T07:39:47.084Z,95373.97
2023-05-10T07:42:51.569Z,95384.31
2023-05-10T07:45:56.273Z,95388.59
2023-05-10T07:48:59.695Z,95386.19
2023-05-10T07:52:02.748Z,95385.63
2023-05-10T07:55:06.498Z,95381.88
2023-05-10T07:58:10.957Z,95370.38
2023-05-10T08:01:14.093Z,95381.09
2023-05-10T08:04:17.166Z,95396.75
2023-05-10T08:07:20.303Z,95369.31
2023-05-10T08:10:23.302Z,95394.09
2023-05-10T08:13:27.960Z,95396.75
2023-05-10T08:16:31.084Z,95390.94
2023-05-10T08:19:34.148Z,95392.03
2023-05-10T08:22:37.313Z,95390.41
2023-05-10T08:25:40.338Z,95393.06
2023-05-10T08:28:44.838Z,95385.19
2023-05-10T08:31:47.975Z,95397.06
2023-05-10T08:34:50.989Z,95369.91
2023-05-10T08:37:54.025Z,95393.59
2023-05-10T08:40:59.731Z,95372.06
2023-05-10T08:44:07.233Z,95402.66
2023-05-10T08:47:12.581Z,95400.56
2023-05-10T08:50:17.317Z,95397.34
2023-05-10T08:53:22.180Z,95401.63
2023-05-10T08:56:25.563Z,95399.66
2023-05-10T08:59:30.608Z,95399.19
2023-05-10T09:02:33.748Z,95405.31
2023-05-10T09:05:38.467Z,95397.63
2023-05-10T09:08:43.892Z,95399.28
2023-05-10T09:11:47.322Z,95403.00
2023-05-10T09:14:52.921Z,95403.00
2023-05-10T09:17:57.397Z,95396.41
2023-05-10T09:21:00.487Z,95387.72
2023-05-10T09:24:06.272Z,95394.81
2023-05-10T09:27:09.270Z,95385.78
2023-05-10T09:30:18.190Z,95389.78
2023-05-10T09:33:21.312Z,95388.72
2023-05-10T09:36:24.305Z,95378.88
2023-05-10T09:39:34.169Z,95375.44
2023-05-10T09:42:37.298Z,95379.66
2023-05-10T09:45:43.607Z,95383.41
2023-05-10T09:48:48.224Z,95388.22
2023-05-10T09:52:03.539Z,95380.78
2023-05-10T09:55:07.287Z,95368.56
2023-05-10T09:58:12.032Z,95356.53
2023-05-10T10:01:16.684Z,95366.44
2023-05-10T10:04:19.847Z,95372.03
2023-05-10T10:07:26.593Z,95368.06
2023-05-10T10:10:30.626Z,95359.81
2023-05-10T10:13:34.315Z,95362.84
2023-05-10T10:16:48.450Z,95359.53
2023-05-10T10:19:55.050Z,95351.13
2023-05-10T10:22:58.148Z,95352.00
2023-05-10T10:26:01.990Z,95353.16
2023-05-10T10:29:18.617Z,95359.25
2023-05-10T10:32:31.817Z,95356.31
2023-05-10T10:35:35.396Z,95356.59
2023-05-10T10:38:40.754Z,95359.53
2023-05-10T10:41:52.284Z,95338.41
2023-05-10T10:45:14.211Z,95354.78
2023-05-10T10:48:25.934Z,95352.72
2023-05-10T10:51:32.279Z,95332.16
2023-05-10T10:54:35.289Z,95351.34
2023-05-10T10:57:49.786Z,95350.91
2023-05-10T11:01:11.012Z,95354.06
2023-05-10T11:04:22.662Z,95356.22
2023-05-10T11:07:25.823Z,95362.25
2023-05-10T11:10:29.810Z,95351.72
2023-05-10T11:13:34.835Z,95352.50
2023-05-10T11:16:44.064Z,95359.38
2023-05-10T11:20:08.595Z,95354.06
2023-05-10T11:23:17.008Z,95334.03
2023-05-10T11:26:24.201Z,95328.41
2023-05-10T11:29:27.704Z,95352.50
2023-05-10T11:32:31.678Z,95355.16
2023-05-10T11:35:43.145Z,95340.13
2023-05-10T11:38:46.807Z,95353.88
2023-05-10T11:41:51.323Z,95329.94
2023-05-10T11:44:54.546Z,95354.38
2023-05-10T11:47:59.054Z,95347.97
2023-05-10T11:51:04.750Z,95366.88
2023-05-10T11:54:10.193Z,95360.25
2023-05-10T11:57:13.284Z,95362.91
2023-05-10T12:00:17.276Z,95355.44
2023-05-10T12:03:21.060Z,95353.38
2023-05-10T12:06:29.106Z,95348.56
2023-05-10T12:09:43.372Z,95345.41
2023-05-10T12:12:48.566Z,95344.31
2023-05-10T12:15:51.636Z,95342.22
2023-05-10T12:18:56.187Z,95326.06
2023-05-10T12:22:01.202Z,95334.75
2023-05-10T12:25:05.300Z,95333.31
2023-05-10T12:28:09.716Z,95333.59
2023-05-10T12:31:12.942Z,95324.81
2023-05-10T12:34:25.594Z,95317.28
2023-05-10T12:37:31.573Z,95324.75
2023-05-10T12:40:34.639Z,95321.38
2023-05-10T12:43:38.633Z,95319.81
2023-05-10T12:46:41.621Z,95316.38
2023-05-10T12:49:44.759Z,95318.22
2023-05-10T12:52:49.180Z,95316.66
2023-05-10T12:55:52.228Z,95318.31
2023-05-10T12:58:55.270Z,95312.72
2023-05-10T13:01:59.467Z,95306.88
2023-05-10T13:05:02.604Z,95304.22
2023-05-10T13:08:07.484Z,95301.84
2023-05-10T13:11:10.552Z,95282.38
2023-05-10T13:14:14.386Z,95296.03
2023-05-10T13:17:17.430Z,95280.22
2023-05-10T13:20:20.625Z,95289.44
2023-05-10T13:23:25.087Z,95296.53
2023-05-10T13:26:28.108Z,95290.72
2023-05-10T13:29:31.121Z,95288.63
2023-05-10T13:32:34.892Z,95282.25
2023-05-10T13:35:37.982Z,95282.25
2023-05-10T13:38:42.458Z,95273.47
2023-05-10T13:41:45.479Z,95272.19
2023-05-10T13:44:48.538Z,95259.00
2023-05-10T13:47:51.627Z,95280.16
2023-05-10T13:50:54.705Z,95276.44
2023-05-10T13:53:59.092Z,95267.66
2023-05-10T13:57:02.290Z,95268.28
2023-05-10T14:00:06.462Z,95273.31
2023-05-10T14:03:12.096Z,95277.56
2023-05-10T14:06:15.539Z,95269.78
2023-05-10T14:09:22.621Z,95275.09
2023-05-10T14:12:25.663Z,95278.56
2023-05-10T14:15:28.927Z,95276.97
2023-05-10T14:18:32.188Z,95280.41
2023-05-10T14:21:35.595Z,95275.91
2023-05-10T14:24:40.472Z,95260.16
2023-05-10T14:27:43.552Z,95276.47
2023-05-10T14:30:46.659Z,95272.59
2023-05-10T14:33:49.869Z,95276.47
2023-05-10T14:36:52.956Z,95272.25
2023-05-10T14:39:57.412Z,95257.44
2023-05-10T14:43:00.484Z,95239.84
2023-05-10T14:46:03.769Z,95262.47
2023-05-10T14:49:06.818Z,95266.63
2023-05-10T14:52:09.881Z,95268.50
2023-05-10T14:55:14.451Z,95272.44
2023-05-10T14:58:17.537Z,95269.78
2023-05-10T15:01:20.668Z,95272.44
2023-05-10T15:04:25.452Z,95261.97
2023-05-10T15:07:30.170Z,95267.00
2023-05-10T15:10:34.647Z,95265.88
2023-05-10T15:13:37.707Z,95269.03
2023-05-10T15:16:40.747Z,95260.25
2023-05-10T15:19:43.902Z,95261.63
2023-05-10T15:22:46.929Z,95264.50
2023-05-10T15:25:51.431Z,95257.59
2023-05-10T15:28:55.311Z,95250.41
2023-05-10T15:31:58.284Z,95248.53
2023-05-10T15:35:01.788Z,95248.84
2023-05-10T15:38:04.758Z,95248.75
2023-05-10T15:41:09.095Z,95244.44
2023-05-10T15:44:12.100Z,95253.47
2023-05-10T15:47:15.081Z,95245.59
2023-05-10T15:50:18.416Z,95227.56
2023-05-10T15:53:21.525Z,95250.28
2023-05-10T15:56:26.825Z,95247.91
2023-05-10T15:59:29.862Z,95251.44
2023-05-10T16:02:33.068Z,95252.22
2023-05-10T16:05:36.204Z,95249.06
2023-05-10T16:08:39.276Z,95235.97
2023-05-10T16:11:44.341Z,95264.22
2023-05-10T16:14:47.683Z,95256.25
2023-05-10T16:17:51.235Z,95253.84
2023-05-10T16:20:54.714Z,95244.66
2023-05-10T16:23:57.940Z,95249.16
2023-05-10T16:27:03.205Z,95260.53
2023-05-10T16:30:07.644Z,95254.72
2023-05-10T16:33:10.681Z,95248.63
2023-05-10T16:36:13.741Z,95256.59
2023-05-10T16:39:16.731Z,95252.34
2023-05-10T16:42:21.153Z,95262.16
2023-05-10T16:45:24.620Z,95253.69
2023-05-10T16:48:27.613Z,95260.59
2023-05-10T16:51:30.745Z,95251.63
2023-05-10T16:54:33.821Z,95243.84
2023-05-10T16:57:38.319Z,95239.00
2023-05-10T17:00:41.436Z,95261.75
2023-05-10T17:03:44.759Z,95250.13
2023-05-10T17:06:48.012Z,95271.16
2023-05-10T17:09:51.043Z,95247.81
2023-05-10T17:12:55.503Z,95266.53
2023-05-10T17:15:59.080Z,95261.22
2023-05-10T17:19:02.199Z,95264.66
2023-05-10T17:22:05.298Z,95267.31
2023-05-10T17:25:09.301Z,95267.81
2023-05-10T17:28:13.843Z,95264.66
2023-05-10T17:31:17.165Z,95269.19
2023-05-10T17:34:20.251Z,95273.22
2023-05-10T17:37:23.311Z,95272.44
2023-05-10T17:40:26.271Z,95274.31
2023-05-10T17:43:30.677Z,95277.41
2023-05-10T17:46:33.676Z,95284.31
2023-05-10T17:49:36.851Z,95276.09
2023-05-10T17:52:39.956Z,95258.44
2023-05-10T17:55:43.900Z,95287.47
2023-05-10T17:58:48.338Z,95283.50
2023-05-10T18:01:51.387Z,95289.03
2023-05-10T18:04:55.186Z,95289.53
2023-05-10T18:07:59.844Z,95301.16
2023-05-10T18:11:02.907Z,95310.22
2023-05-10T18:14:07.277Z,95308.69
2023-05-10T18:17:11.029Z,95309.53
2023-05-10T18:20:14.282Z,95312.94
2023-05-10T18:23:17.278Z,95314.63
2023-05-10T18:26:20.311Z,95314.34
2023-05-10T18:29:24.727Z,95301.84
2023-05-10T18:32:28.019Z,95305.38
2023-05-10T18:35:31.090Z,95312.31
2023-05-10T18:38:34.225Z,95321.31
2023-05-10T18:41:37.415Z,95306.50
2023-05-10T18:44:41.847Z,95326.81
2023-05-10T18:47:45.057Z,95332.00
2023-05-10T18:50:48.578Z,95336.06
2023-05-10T18:53:51.793Z,95332.13
2023-05-10T18:56:54.831Z,95331.19
2023-05-10T18:59:59.230Z,95331.81
2023-05-10T19:03:02.349Z,95332.63
2023-05-10T19:06:05.517Z,95329.13
2023-05-10T19:09:09.919Z,95327.41
2023-05-10T19:12:12.996Z,95328.38
2023-05-10T19:15:19.221Z,95327.72
2023-05-10T19:18:24.476Z,95326.47
2023-05-10T19:21:27.856Z,95319.25
2023-05-10T19:24:31.038Z,95326.50
2023-05-10T19:27:34.171Z,95337.69
2023-05-10T19:30:38.631Z,95335.16
2023-05-10T19:33:41.694Z,95331.53
2023-05-10T19:36:44.999Z,95331.38
2023-05-10T19:39:48.118Z,95331.66
2023-05-10T19:42:51.324Z,95333.78
2023-05-10T19:45:56.082Z,95322.31
2023-05-10T19:48:59.180Z,95338.97
2023-05-10T19:52:02.238Z,95335.28
2023-05-10T19:55:05.937Z,95336.09
2023-05-10T19:58:09.079Z,95333.13
2023-05-10T20:01:13.817Z,95309.00
2023-05-10T20:04:16.945Z,95323.22
2023-05-10T20:07:20.013Z,95323.13
2023-05-10T20:10:25.184Z,95324.03
2023-05-10T20:13:29.990Z,95319.59
2023-05-10T20:16:34.498Z,95317.06
2023-05-10T20:19:37.640Z,95318.22
2023-05-10T20:22:41.088Z,95317.84
2023-05-10T20:25:44.467Z,95313.09
2023-05-10T20:28:47.512Z,95322.34
2023-05-10T20:31:52.055Z,95319.00
2023-05-10T20:34:55.441Z,95324.63
2023-05-10T20:38:00.073Z,95323.13
2023-05-10T20:41:03.127Z,95323.72
2023-05-10T20:44:06.768Z,95323.84
2023-05-10T20:47:11.368Z,95331.34
2023-05-10T20:50:14.589Z,95323.13
2023-05-10T20:53:18.557Z,95327.16
2023-05-10T20:56:21.834Z,95322.63
2023-05-10T20:59:24.926Z,95316.31
2023-05-10T21:02:29.484Z,95319.56
2023-05-10T21:05:32.717Z,95323.31
2023-05-10T21:08:35.941Z,95315.34
2023-05-10T21:11:39.482Z,95322.53
2023-05-10T21:14:43.174Z,95322.13
2023-05-10T21:17:47.719Z,95317.47
2023-05-10T21:20:50.759Z,95319.75
2023-05-10T21:23:53.784Z,95321.63
2023-05-10T21:26:56.844Z,95320.13
2023-05-10T21:29:59.953Z,95320.94
2023-05-10T21:33:04.603Z,95314.41
2023-05-10T21:36:08.586Z,95324.25
2023-05-10T21:39:12.206Z,95317.16
2023-05-10T21:42:15.328Z,95318.44
2023-05-10T21:45:18.909Z,95275.78
2023-05-10T21:48:23.407Z,95323.25
2023-05-10T21:51:26.415Z,95321.47
2023-05-10T21:57:32.959Z,95310.84
2023-05-10T22:00:36.115Z,95311.91
2023-05-10T22:03:40.633Z,95317.25
2023-05-10T22:06:44.266Z,95307.16
2023-05-10T22:09:47.440Z,95303.72
2023-05-10T22:12:50.526Z,95309.88
2023-05-10T22:15:53.648Z,95306.13
2023-05-10T22:18:58.242Z,95289.88
2023-05-10T22:22:01.408Z,95306.44
2023-05-10T22:25:04.663Z,95313.13
2023-05-10T22:28:09.339Z,95302.78
2023-05-10T22:31:12.823Z,95305.16
2023-05-10T22:34:17.335Z,95303.09
2023-05-10T22:37:20.409Z,95303.97
2023-05-10T22:40:23.488Z,95282.63
2023-05-10T22:43:26.546Z,95266.53
2023-05-10T22:46:30.450Z,95303.16
2023-05-10T22:49:35.048Z,95294.25
2023-05-10T22:52:39.449Z,95273.66
2023-05-10T22:55:42.652Z,95299.19
2023-05-10T22:58:45.803Z,95292.00
2023-05-10T23:01:49.305Z,95273.09
2023-05-10T23:04:53.768Z,95278.81
2023-05-10T23:07:56.902Z,95284.91
2023-05-10T23:11:00.007Z,95284.22
2023-05-10T23:14:03.133Z,95279.09
2023-05-10T23:17:06.329Z,95268.47
2023-05-10T23:20:12.427Z,95273.19
2023-05-10T23:23:15.842Z,95268.75
2023-05-10T23:26:18.847Z,95276.72
2023-05-10T23:29:22.001Z,95256.13
2023-05-10T23:32:25.082Z,95265.09
2023-05-10T23:35:29.587Z,95266.47
2023-05-10T23:38:32.629Z,95260.94
2023-05-10T23:41:35.731Z,95269.44
2023-05-10T23:44:38.804Z,95266.47
2023-05-10T23:47:42.030Z,95265.69
2023-05-10T23:50:47.169Z,95271.28
2023-05-10T23:53:50.268Z,95267.56
2023-05-10T23:56:53.423Z,95268.34
2023-05-10T23:59:56.457Z,95265.16
